Time;durP1;ratioP1;P1;durP2;ratioP2;P2;SDS_P1;SDS_P2;PMS_P1;PMS_P2;Temp;Humidity;BMP_temperature;BMP_pressure;BME280_temperature;BME280_humidity;BME280_pressure;Samples;Min_cycle;Max_cycle;Signal;HPM_P1;HPM_P2
2022/05/04 00:00:36;;;;;;;10.02;7.78;;;;;;;;;;5124436;28;20035;-81
2022/05/04 00:03:02;;;;;;;10.98;8.35;;;;;;;;;;5124405;28;20023;-81
2022/05/04 00:05:28;;;;;;;10.70;7.82;;;;;;;;;;5124023;28;20023;-82
2022/05/04 00:07:54;;;;;;;10.98;7.88;;;;;;;;;;5122576;28;20386;-81
2022/05/04 00:10:22;;;;;;;9.43;7.90;;;;;;;;;;5122675;28;20023;-81
2022/05/04 00:12:48;;;;;;;11.48;8.30;;;;;;;;;;5124267;28;20047;-81
2022/05/04 00:15:14;;;;;;;10.13;8.35;;;;;;;;;;5124109;28;20043;-81
2022/05/04 00:17:40;;;;;;;9.95;8.25;;;;;;;;;;5123349;28;20024;-81
2022/05/04 00:20:07;;;;;;;11.10;8.02;;;;;;;;;;5123125;28;20015;-81
2022/05/04 00:22:33;;;;;;;12.07;8.80;;;;;;;;;;5123080;28;20031;-83
2022/05/04 00:24:59;;;;;;;9.75;8.52;;;;;;;;;;5123470;28;20047;-83
2022/05/04 00:27:25;;;;;;;11.85;8.20;;;;;;;;;;5123252;28;20510;-81
2022/05/04 00:29:51;;;;;;;11.82;8.88;;;;;;;;;;5123655;28;20032;-81
2022/05/04 00:32:17;;;;;;;10.52;8.90;;;;;;;;;;5123916;28;20031;-81
2022/05/04 00:34:43;;;;;;;11.02;8.80;;;;;;;;;;5121871;28;20019;-81
2022/05/04 00:37:09;;;;;;;10.98;8.43;;;;;;;;;;5123516;28;20023;-80
2022/05/04 00:39:36;;;;;;;11.23;8.63;;;;;;;;;;5122844;28;20072;-81
2022/05/04 00:42:19;;;;;;;10.85;8.63;;;;;;;;;;5120789;28;20051;-81
2022/05/04 00:44:46;;;;;;;10.52;9.10;;;;;;;;;;5119111;28;20083;-81
2022/05/04 00:47:12;;;;;;;10.82;8.90;;;;;;;;;;5122017;28;20020;-81
2022/05/04 00:49:40;;;;;;;12.00;9.32;;;;;;;;;;5123082;28;20020;-81
2022/05/04 00:52:06;;;;;;;11.05;8.52;;;;;;;;;;5122829;28;20098;-81
2022/05/04 00:54:33;;;;;;;10.60;8.50;;;;;;;;;;5123258;28;20087;-81
2022/05/04 00:56:59;;;;;;;11.50;8.52;;;;;;;;;;5121316;28;20020;-81
2022/05/04 00:59:26;;;;;;;11.13;8.68;;;;;;;;;;5122537;28;20069;-80
2022/05/04 01:01:52;;;;;;;12.82;9.38;;;;;;;;;;5122903;28;20027;-84
2022/05/04 01:04:18;;;;;;;12.10;9.40;;;;;;;;;;5122038;28;20026;-81
2022/05/04 01:06:48;;;;;;;12.30;9.63;;;;;;;;;;5121475;28;20043;-81
2022/05/04 01:09:15;;;;;;;10.90;9.30;;;;;;;;;;5122616;28;20015;-81
2022/05/04 01:11:41;;;;;;;12.75;9.63;;;;;;;;;;5122379;28;20047;-83
2022/05/04 01:14:11;;;;;;;11.20;8.90;;;;;;;;;;5122009;28;20024;-81
2022/05/04 01:16:39;;;;;;;12.43;9.85;;;;;;;;;;5122760;28;20103;-81
2022/05/04 01:19:06;;;;;;;11.80;9.50;;;;;;;;;;5121104;28;20016;-81
2022/05/04 01:21:32;;;;;;;12.88;9.40;;;;;;;;;;5123947;28;20027;-81
2022/05/04 01:23:58;;;;;;;11.85;9.55;;;;;;;;;;5124947;28;20053;-81
2022/05/04 01:26:25;;;;;;;13.52;8.68;;;;;;;;;;5125084;28;20023;-81
2022/05/04 01:28:51;;;;;;;12.93;9.05;;;;;;;;;;5126190;28;20031;-81
2022/05/04 01:31:17;;;;;;;11.43;9.18;;;;;;;;;;5126702;28;20357;-81
2022/05/04 01:33:43;;;;;;;11.75;8.98;;;;;;;;;;5125586;28;20061;-81
2022/05/04 01:36:09;;;;;;;11.77;8.85;;;;;;;;;;5125173;28;20031;-81
2022/05/04 01:38:35;;;;;;;12.35;9.55;;;;;;;;;;5125217;28;20024;-81
2022/05/04 01:41:02;;;;;;;13.70;9.18;;;;;;;;;;5125142;28;20038;-81
2022/05/04 01:43:28;;;;;;;12.48;10.15;;;;;;;;;;5124475;28;20083;-81
2022/05/04 01:45:54;;;;;;;12.45;10.32;;;;;;;;;;5124461;28;20023;-81
2022/05/04 01:48:20;;;;;;;11.55;9.43;;;;;;;;;;5123855;28;20015;-81
2022/05/04 01:50:47;;;;;;;12.60;9.38;;;;;;;;;;5123530;28;20027;-81
2022/05/04 01:53:13;;;;;;;12.68;9.45;;;;;;;;;;5125012;28;20024;-81
2022/05/04 01:55:40;;;;;;;13.52;9.63;;;;;;;;;;5123604;28;20020;-81
2022/05/04 01:58:06;;;;;;;12.48;9.27;;;;;;;;;;5124211;28;20115;-81
2022/05/04 02:00:32;;;;;;;11.98;8.90;;;;;;;;;;5125440;28;20027;-81
2022/05/04 02:02:59;;;;;;;13.07;9.45;;;;;;;;;;5125319;28;20015;-81
2022/05/04 02:05:25;;;;;;;12.23;9.73;;;;;;;;;;5122706;28;20062;-81
2022/05/04 02:07:54;;;;;;;12.27;9.57;;;;;;;;;;5124809;28;20047;-81
2022/05/04 02:10:20;;;;;;;14.63;9.85;;;;;;;;;;5124715;28;20041;-81
2022/05/04 02:12:46;;;;;;;13.40;9.60;;;;;;;;;;5124110;28;20042;-82
2022/05/04 02:15:12;;;;;;;12.43;10.02;;;;;;;;;;5124337;28;20027;-82
2022/05/04 02:17:39;;;;;;;11.23;9.10;;;;;;;;;;5123841;28;20098;-81
2022/05/04 02:20:05;;;;;;;11.85;9.75;;;;;;;;;;5124222;28;20038;-82
2022/05/04 02:22:32;;;;;;;11.50;9.52;;;;;;;;;;5123283;28;20556;-81
2022/05/04 02:24:58;;;;;;;11.90;9.18;;;;;;;;;;5123548;28;20032;-81
2022/05/04 02:27:24;;;;;;;13.95;10.60;;;;;;;;;;5124585;28;20042;-81
2022/05/04 02:29:50;;;;;;;12.00;9.50;;;;;;;;;;5123862;28;20020;-82
2022/05/04 02:32:16;;;;;;;11.60;9.25;;;;;;;;;;5123667;28;20019;-82
2022/05/04 02:40:12;;;;;;;14.32;11.00;;;;;;;;;;5123138;28;20080;-80
2022/05/04 02:42:38;;;;;;;12.50;9.68;;;;;;;;;;5124063;28;20087;-82
2022/05/04 02:45:05;;;;;;;12.55;10.45;;;;;;;;;;5123639;28;20031;-81
2022/05/04 02:47:31;;;;;;;13.63;10.45;;;;;;;;;;5122451;28;20028;-81
2022/05/04 02:49:57;;;;;;;14.90;10.60;;;;;;;;;;5122888;28;20020;-81
2022/05/04 02:52:23;;;;;;;15.23;9.85;;;;;;;;;;5121760;28;20469;-80
2022/05/04 02:54:49;;;;;;;11.55;9.52;;;;;;;;;;5120964;28;20034;-82
2022/05/04 02:57:15;;;;;;;12.13;10.05;;;;;;;;;;5122596;28;20027;-81
2022/05/04 02:59:41;;;;;;;13.02;10.15;;;;;;;;;;5123057;28;20118;-82
2022/05/04 03:04:52;;;;;;;12.35;9.80;;;;;;;;;;5123513;28;20115;-82
2022/05/04 03:07:18;;;;;;;11.65;9.50;;;;;;;;;;5122834;28;20034;-82
2022/05/04 03:09:44;;;;;;;12.73;10.23;;;;;;;;;;5122396;28;20034;-82
2022/05/04 03:12:10;;;;;;;13.75;10.35;;;;;;;;;;5122525;28;20051;-81
2022/05/04 03:14:36;;;;;;;11.95;10.05;;;;;;;;;;5121960;28;20110;-82
2022/05/04 03:17:02;;;;;;;13.35;10.00;;;;;;;;;;5120188;28;20043;-82
2022/05/04 03:19:28;;;;;;;11.95;10.15;;;;;;;;;;5121202;28;20141;-82
2022/05/04 03:21:54;;;;;;;13.60;10.18;;;;;;;;;;5122991;28;20055;-82
2022/05/04 03:24:21;;;;;;;12.25;10.15;;;;;;;;;;5121990;28;20437;-80
2022/05/04 03:26:47;;;;;;;13.00;9.95;;;;;;;;;;5120182;28;20016;-82
2022/05/04 03:29:13;;;;;;;11.90;9.95;;;;;;;;;;5122532;28;20034;-82
2022/05/04 03:31:39;;;;;;;12.75;10.50;;;;;;;;;;5120479;28;20043;-82
2022/05/04 03:34:06;;;;;;;12.93;10.20;;;;;;;;;;5120890;28;20464;-82
2022/05/04 03:36:32;;;;;;;12.95;10.25;;;;;;;;;;5122415;28;20028;-82
2022/05/04 03:38:59;;;;;;;13.20;10.02;;;;;;;;;;5128927;27;20019;-80
2022/05/04 03:41:25;;;;;;;14.93;10.38;;;;;;;;;;5121320;27;20027;-80
2022/05/04 03:43:51;;;;;;;12.93;10.05;;;;;;;;;;5133973;27;20482;-82
2022/05/04 03:46:24;;;;;;;14.65;10.82;;;;;;;;;;5139532;27;20052;-81
2022/05/04 03:48:55;;;;;;;13.90;9.57;;;;;;;;;;5141051;27;20019;-82
2022/05/04 03:51:22;;;;;;;15.00;10.40;;;;;;;;;;5141139;27;20035;-82
2022/05/04 03:53:49;;;;;;;13.73;11.05;;;;;;;;;;5139589;27;20267;-82
2022/05/04 03:56:15;;;;;;;14.90;11.35;;;;;;;;;;5142201;27;20106;-82
2022/05/04 03:58:41;;;;;;;15.63;11.13;;;;;;;;;;5142468;27;20031;-82
2022/05/04 04:01:08;;;;;;;14.00;10.55;;;;;;;;;;5142800;27;20056;-82
2022/05/04 04:03:34;;;;;;;17.80;12.18;;;;;;;;;;5142655;27;20031;-82
2022/05/04 04:06:01;;;;;;;14.57;9.98;;;;;;;;;;5142147;27;20099;-82
2022/05/04 04:08:27;;;;;;;17.23;11.18;;;;;;;;;;5142145;27;20551;-82
2022/05/04 04:10:54;;;;;;;14.38;10.25;;;;;;;;;;5141539;27;20020;-82
2022/05/04 04:13:20;;;;;;;14.95;9.85;;;;;;;;;;5142147;27;20030;-82
2022/05/04 04:15:47;;;;;;;14.60;10.32;;;;;;;;;;5142429;27;20070;-82
2022/05/04 04:18:13;;;;;;;12.65;10.02;;;;;;;;;;5141882;27;20084;-81
2022/05/04 04:23:24;;;;;;;16.27;10.93;;;;;;;;;;5141703;27;20410;-82
2022/05/04 04:25:50;;;;;;;12.70;10.00;;;;;;;;;;5141197;27;20023;-82
2022/05/04 04:28:16;;;;;;;11.85;9.60;;;;;;;;;;5139473;27;20108;-82
2022/05/04 04:30:42;;;;;;;11.00;9.55;;;;;;;;;;5133457;27;20027;-81
2022/05/04 04:33:08;;;;;;;12.98;9.68;;;;;;;;;;5121037;28;20023;-81
2022/05/04 04:35:34;;;;;;;12.75;10.63;;;;;;;;;;5120685;28;20020;-80
2022/05/04 04:38:01;;;;;;;16.38;13.05;;;;;;;;;;5127188;28;20223;-82
2022/05/04 04:40:27;;;;;;;14.82;13.05;;;;;;;;;;5135967;27;20090;-82
2022/05/04 04:42:53;;;;;;;13.50;10.45;;;;;;;;;;5124667;27;20028;-82
2022/05/04 04:45:19;;;;;;;12.52;9.77;;;;;;;;;;5129456;27;20118;-81
2022/05/04 04:47:46;;;;;;;14.35;11.40;;;;;;;;;;5119876;27;20024;-82
2022/05/04 04:50:12;;;;;;;13.48;10.30;;;;;;;;;;5120117;28;20020;-82
2022/05/04 04:52:38;;;;;;;15.23;10.95;;;;;;;;;;5120788;28;20107;-82
2022/05/04 04:55:05;;;;;;;13.50;9.73;;;;;;;;;;5128439;27;20074;-81
2022/05/04 04:57:33;;;;;;;14.10;10.50;;;;;;;;;;5127188;27;20088;-82
2022/05/04 04:59:59;;;;;;;14.20;10.30;;;;;;;;;;5123757;28;20028;-81
2022/05/04 05:02:25;;;;;;;12.60;9.80;;;;;;;;;;5123747;28;20031;-82
2022/05/04 05:04:51;;;;;;;18.50;11.32;;;;;;;;;;5124690;28;20019;-81
2022/05/04 05:07:17;;;;;;;12.73;9.95;;;;;;;;;;5125101;27;20069;-82
2022/05/04 05:09:43;;;;;;;10.75;8.75;;;;;;;;;;5134249;27;20108;-82
2022/05/04 05:12:10;;;;;;;12.48;9.63;;;;;;;;;;5126362;27;20402;-81
2022/05/04 05:17:20;;;;;;;12.52;10.20;;;;;;;;;;5135477;27;20088;-82
2022/05/04 05:19:46;;;;;;;12.43;10.18;;;;;;;;;;5131296;27;20020;-81
2022/05/04 05:22:12;;;;;;;13.85;10.98;;;;;;;;;;5135880;27;20023;-80
2022/05/04 05:24:38;;;;;;;14.65;10.70;;;;;;;;;;5122969;27;20431;-82
2022/05/04 05:27:05;;;;;;;14.88;11.95;;;;;;;;;;5123479;27;20016;-82
2022/05/04 05:29:31;;;;;;;14.73;11.55;;;;;;;;;;5124376;28;20027;-83
2022/05/04 05:31:56;;;;;;;13.77;11.25;;;;;;;;;;5143641;27;20283;-83
2022/05/04 05:34:22;;;;;;;17.08;11.27;;;;;;;;;;5128987;27;20028;-83
2022/05/04 05:36:48;;;;;;;15.88;11.80;;;;;;;;;;5125374;28;20032;-83
2022/05/04 05:39:14;;;;;;;15.25;12.38;;;;;;;;;;5123681;27;20031;-83
2022/05/04 05:41:40;;;;;;;16.35;11.40;;;;;;;;;;5119656;28;20027;-83
2022/05/04 05:44:06;;;;;;;19.30;12.20;;;;;;;;;;5140346;27;20034;-83
2022/05/04 05:46:32;;;;;;;18.48;12.80;;;;;;;;;;5134141;27;20027;-83
2022/05/04 05:49:00;;;;;;;15.98;11.88;;;;;;;;;;5123674;27;20450;-83
2022/05/04 05:51:27;;;;;;;17.40;12.25;;;;;;;;;;5123684;27;20077;-81
2022/05/04 05:53:53;;;;;;;15.63;11.35;;;;;;;;;;5137468;27;20024;-82
2022/05/04 05:56:19;;;;;;;15.95;11.85;;;;;;;;;;5128184;27;20379;-83
2022/05/04 05:58:46;;;;;;;15.38;11.30;;;;;;;;;;5128145;27;20050;-83
2022/05/04 06:01:12;;;;;;;13.60;11.20;;;;;;;;;;5123614;27;20031;-82
2022/05/04 06:03:38;;;;;;;14.20;11.18;;;;;;;;;;5129576;27;20034;-82
2022/05/04 06:06:04;;;;;;;13.80;10.98;;;;;;;;;;5145005;27;20019;-80
2022/05/04 06:08:30;;;;;;;14.60;12.13;;;;;;;;;;5159239;27;20037;-80
2022/05/04 06:10:56;;;;;;;15.13;11.55;;;;;;;;;;5160631;27;20023;-80
2022/05/04 06:13:22;;;;;;;13.70;11.98;;;;;;;;;;5159637;27;20023;-79
2022/05/04 06:15:48;;;;;;;13.40;10.93;;;;;;;;;;5158610;27;20160;-79
2022/05/04 06:18:14;;;;;;;13.27;10.48;;;;;;;;;;5151959;27;20049;-80
2022/05/04 06:20:40;;;;;;;13.02;10.93;;;;;;;;;;5133473;27;20028;-83
2022/05/04 06:23:06;;;;;;;17.08;11.80;;;;;;;;;;5130776;27;20032;-81
2022/05/04 06:25:32;;;;;;;13.18;10.90;;;;;;;;;;5137723;27;20023;-82
2022/05/04 06:27:58;;;;;;;16.55;11.98;;;;;;;;;;5129283;27;20504;-82
2022/05/04 06:35:54;;;;;;;14.38;11.18;;;;;;;;;;5137886;27;20413;-82
2022/05/04 06:38:20;;;;;;;14.15;11.70;;;;;;;;;;5127434;27;20031;-83
2022/05/04 06:40:46;;;;;;;20.23;11.82;;;;;;;;;;5139713;27;20031;-82
2022/05/04 06:43:12;;;;;;;19.13;11.93;;;;;;;;;;5131829;27;20091;-80
2022/05/04 06:45:38;;;;;;;16.00;11.75;;;;;;;;;;5120200;27;20475;-82
2022/05/04 06:48:05;;;;;;;13.18;11.63;;;;;;;;;;5121209;28;20058;-83
2022/05/04 06:50:31;;;;;;;14.57;11.65;;;;;;;;;;5133066;27;20016;-81
2022/05/04 06:52:57;;;;;;;13.30;11.60;;;;;;;;;;5155559;27;20011;-82
2022/05/04 06:55:25;;;;;;;12.35;10.88;;;;;;;;;;5156829;27;20018;-82
2022/05/04 06:57:51;;;;;;;12.32;10.23;;;;;;;;;;5128022;27;20023;-82
2022/05/04 07:00:17;;;;;;;13.10;10.90;;;;;;;;;;5124745;27;20034;-80
2022/05/04 07:02:43;;;;;;;13.02;10.35;;;;;;;;;;5144809;27;20048;-83
2022/05/04 07:05:09;;;;;;;14.07;10.95;;;;;;;;;;5140164;27;20043;-84
2022/05/04 07:07:35;;;;;;;11.48;10.15;;;;;;;;;;5144765;27;20056;-83
2022/05/04 07:10:01;;;;;;;13.50;10.90;;;;;;;;;;5136840;27;20051;-84
2022/05/04 07:12:27;;;;;;;12.65;10.88;;;;;;;;;;5142249;27;20050;-83
2022/05/04 07:14:56;;;;;;;11.95;10.00;;;;;;;;;;5133320;27;20023;-82
2022/05/04 07:17:22;;;;;;;12.75;11.05;;;;;;;;;;5125817;28;20028;-84
2022/05/04 07:19:48;;;;;;;11.98;10.63;;;;;;;;;;5133851;27;20069;-83
2022/05/04 07:22:16;;;;;;;13.35;10.27;;;;;;;;;;5142296;27;20039;-83
2022/05/04 07:24:42;;;;;;;13.48;10.60;;;;;;;;;;5147274;27;20027;-84
2022/05/04 07:27:08;;;;;;;12.88;10.40;;;;;;;;;;5144821;27;20398;-83
2022/05/04 07:29:34;;;;;;;12.75;10.90;;;;;;;;;;5134256;27;20015;-83
2022/05/04 07:32:00;;;;;;;12.27;10.82;;;;;;;;;;5145382;27;21485;-84
2022/05/04 07:34:26;;;;;;;12.75;11.45;;;;;;;;;;5119172;27;20043;-83
2022/05/04 07:36:52;;;;;;;12.90;10.02;;;;;;;;;;5136957;27;20053;-83
2022/05/04 07:42:24;;;;;;;13.43;11.30;;;;;;;;;;5129430;28;20066;-83
2022/05/04 07:44:51;;;;;;;14.02;11.40;;;;;;;;;;5128688;28;20474;-82
2022/05/04 07:47:17;;;;;;;16.50;13.23;;;;;;;;;;5127731;28;20015;-82
2022/05/04 07:49:43;;;;;;;15.57;12.73;;;;;;;;;;5128492;28;20019;-81
2022/05/04 07:52:09;;;;;;;14.23;11.52;;;;;;;;;;5124840;28;20020;-82
2022/05/04 07:54:35;;;;;;;13.80;12.27;;;;;;;;;;5123682;28;20027;-82
2022/05/04 07:57:01;;;;;;;16.92;13.10;;;;;;;;;;5126810;28;20244;-83
2022/05/04 07:59:27;;;;;;;14.75;12.18;;;;;;;;;;5125530;28;20144;-83
2022/05/04 08:04:37;;;;;;;14.20;10.98;;;;;;;;;;5130278;28;20529;-83
2022/05/04 08:07:04;;;;;;;14.90;11.43;;;;;;;;;;5130267;28;20055;-82
2022/05/04 08:09:34;;;;;;;13.32;11.02;;;;;;;;;;5130878;28;20031;-82
2022/05/04 08:12:01;;;;;;;13.95;10.82;;;;;;;;;;5127938;28;20078;-82
2022/05/04 08:14:27;;;;;;;16.08;11.77;;;;;;;;;;5126979;28;20016;-80
2022/05/04 08:16:53;;;;;;;11.88;10.63;;;;;;;;;;5127656;28;20110;-82
2022/05/04 08:19:20;;;;;;;12.82;10.23;;;;;;;;;;5127674;28;20051;-82
2022/05/04 08:21:46;;;;;;;13.30;11.50;;;;;;;;;;5126750;28;20032;-81
2022/05/04 08:24:12;;;;;;;13.85;11.13;;;;;;;;;;5130644;28;20024;-82
2022/05/04 08:26:38;;;;;;;14.43;10.98;;;;;;;;;;5130048;28;20095;-82
2022/05/04 08:29:04;;;;;;;13.40;11.50;;;;;;;;;;5127025;28;20054;-82
2022/05/04 08:31:31;;;;;;;15.02;11.23;;;;;;;;;;5129686;28;20016;-82
2022/05/04 08:33:57;;;;;;;12.38;11.02;;;;;;;;;;5129727;28;20020;-83
2022/05/04 08:36:24;;;;;;;13.55;10.85;;;;;;;;;;5129758;28;20047;-83
2022/05/04 08:38:50;;;;;;;13.48;10.30;;;;;;;;;;5127999;28;20440;-82
2022/05/04 08:41:16;;;;;;;11.80;10.48;;;;;;;;;;5129541;28;20027;-82
2022/05/04 08:43:43;;;;;;;13.88;10.57;;;;;;;;;;5125568;28;20016;-81
2022/05/04 08:46:13;;;;;;;13.52;11.15;;;;;;;;;;5126251;28;20015;-81
2022/05/04 08:48:39;;;;;;;10.85;9.63;;;;;;;;;;5130032;28;20024;-82
2022/05/04 08:51:06;;;;;;;12.48;10.52;;;;;;;;;;5126460;28;20031;-81
2022/05/04 08:53:32;;;;;;;12.93;10.73;;;;;;;;;;5124910;28;20023;-81
2022/05/04 08:55:59;;;;;;;11.85;10.27;;;;;;;;;;5128618;28;20020;-82
2022/05/04 08:58:25;;;;;;;13.10;10.30;;;;;;;;;;5124845;28;20058;-81
2022/05/04 09:00:51;;;;;;;12.32;10.05;;;;;;;;;;5125791;28;20023;-81
2022/05/04 09:03:18;;;;;;;13.90;10.52;;;;;;;;;;5127957;28;20022;-82
2022/05/04 09:05:47;;;;;;;12.07;9.80;;;;;;;;;;5127459;28;20047;-82
2022/05/04 09:08:14;;;;;;;12.32;10.52;;;;;;;;;;5123828;28;20016;-83
2022/05/04 09:10:44;;;;;;;12.05;9.80;;;;;;;;;;5130848;28;20024;-82
2022/05/04 09:13:10;;;;;;;13.60;11.40;;;;;;;;;;5127939;28;20047;-82
2022/05/04 09:15:38;;;;;;;14.93;10.70;;;;;;;;;;5127183;28;20027;-82
2022/05/04 09:18:04;;;;;;;14.25;11.15;;;;;;;;;;5126090;28;20057;-82
2022/05/04 09:23:16;;;;;;;11.07;9.88;;;;;;;;;;5129031;28;20038;-81
2022/05/04 09:25:42;;;;;;;12.52;9.52;;;;;;;;;;5128188;28;20102;-80
2022/05/04 09:28:12;;;;;;;10.77;9.68;;;;;;;;;;5123913;28;20020;-82
2022/05/04 09:30:42;;;;;;;14.65;10.50;;;;;;;;;;5140637;27;20039;-82
2022/05/04 09:33:12;;;;;;;11.27;9.55;;;;;;;;;;5137577;28;20086;-82
2022/05/04 09:35:41;;;;;;;10.80;8.50;;;;;;;;;;5134482;28;20019;-82
2022/05/04 09:46:42;;;;;;;13.00;9.05;;;;;;;;;;5133557;27;20038;-81
2022/05/04 09:49:33;;;;;;;11.35;9.02;;;;;;;;;;5139065;27;20007;-82
2022/05/04 09:52:02;;;;;;;11.48;9.25;;;;;;;;;;5132010;27;20035;-82
2022/05/04 09:54:28;;;;;;;10.95;8.88;;;;;;;;;;5140907;27;20489;-82
2022/05/04 09:56:58;;;;;;;10.45;8.95;;;;;;;;;;5140538;27;20418;-82
2022/05/04 09:59:25;;;;;;;11.80;9.27;;;;;;;;;;5141962;27;20035;-80
2022/05/04 10:01:52;;;;;;;12.30;8.90;;;;;;;;;;5141442;27;20030;-81
2022/05/04 10:04:20;;;;;;;12.13;9.38;;;;;;;;;;5142288;27;20113;-81
2022/05/04 10:06:47;;;;;;;13.40;9.45;;;;;;;;;;5143394;27;20019;-81
2022/05/04 10:09:13;;;;;;;9.73;7.75;;;;;;;;;;5126651;27;20020;-82
2022/05/04 10:11:39;;;;;;;10.32;8.00;;;;;;;;;;5139868;27;20058;-82
2022/05/04 10:14:15;;;;;;;9.40;7.25;;;;;;;;;;5125504;27;20114;-81
2022/05/04 10:16:41;;;;;;;8.18;6.80;;;;;;;;;;5127605;28;20028;-81
2022/05/04 10:19:10;;;;;;;9.45;6.47;;;;;;;;;;5131470;27;20075;-80
2022/05/04 10:21:37;;;;;;;8.23;6.80;;;;;;;;;;5133278;27;20027;-81
2022/05/04 10:24:07;;;;;;;10.13;7.72;;;;;;;;;;5127622;27;20032;-80
2022/05/04 10:26:33;;;;;;;8.70;6.90;;;;;;;;;;5142607;27;20478;-80
2022/05/04 10:31:54;;;;;;;11.00;8.93;;;;;;;;;;5131485;27;20084;-79
2022/05/04 10:34:20;;;;;;;9.40;7.40;;;;;;;;;;5130833;27;20034;-80
2022/05/04 10:36:47;;;;;;;10.88;7.30;;;;;;;;;;5122354;28;20114;-80
2022/05/04 10:39:19;;;;;;;8.88;7.30;;;;;;;;;;5124282;27;20080;-80
2022/05/04 10:41:45;;;;;;;8.77;6.95;;;;;;;;;;5125018;27;20026;-81
2022/05/04 10:44:12;;;;;;;9.60;7.35;;;;;;;;;;5121772;28;20357;-80
2022/05/04 10:46:39;;;;;;;12.40;7.97;;;;;;;;;;5124134;28;20115;-82
2022/05/04 10:49:06;;;;;;;9.57;8.57;;;;;;;;;;5122410;28;20055;-81
2022/05/04 10:51:37;;;;;;;9.50;7.13;;;;;;;;;;5122589;28;20068;-81
2022/05/04 10:54:08;;;;;;;10.10;8.07;;;;;;;;;;5132207;27;20038;-80
2022/05/04 10:56:44;;;;;;;10.63;7.72;;;;;;;;;;5143771;27;20023;-80
2022/05/04 10:59:10;;;;;;;10.82;7.57;;;;;;;;;;5144109;27;20035;-80
2022/05/04 11:01:38;;;;;;;8.23;6.88;;;;;;;;;;5142709;27;20027;-81
2022/05/04 11:04:04;;;;;;;7.70;6.53;;;;;;;;;;5144552;27;20027;-81
2022/05/04 11:06:31;;;;;;;12.32;6.80;;;;;;;;;;5144185;27;20043;-81
2022/05/04 11:09:00;;;;;;;12.48;9.30;;;;;;;;;;5133838;27;20051;-80
2022/05/04 11:11:27;;;;;;;13.93;9.60;;;;;;;;;;5126154;27;20542;-80
2022/05/04 11:13:53;;;;;;;17.95;9.95;;;;;;;;;;5123066;27;20027;-80
2022/05/04 11:16:20;;;;;;;12.63;9.60;;;;;;;;;;5141449;27;20023;-80
2022/05/04 11:18:46;;;;;;;13.15;9.30;;;;;;;;;;5129268;27;20409;-80
2022/05/04 11:21:13;;;;;;;11.73;8.77;;;;;;;;;;5137644;27;20088;-80
2022/05/04 11:23:39;;;;;;;10.40;8.05;;;;;;;;;;5136198;27;20722;-80
2022/05/04 11:26:06;;;;;;;10.60;8.55;;;;;;;;;;5119469;28;20027;-80
2022/05/04 11:28:34;;;;;;;10.57;8.18;;;;;;;;;;5129474;27;20023;-80
2022/05/04 11:31:00;;;;;;;18.00;9.40;;;;;;;;;;5138676;27;20015;-80
2022/05/04 11:33:26;;;;;;;10.57;8.48;;;;;;;;;;5134068;27;20023;-80
2022/05/04 11:35:54;;;;;;;9.85;8.13;;;;;;;;;;5138862;27;20020;-80
2022/05/04 11:38:21;;;;;;;11.30;7.68;;;;;;;;;;5134324;27;20030;-80
2022/05/04 11:40:48;;;;;;;8.80;7.40;;;;;;;;;;5142616;27;20051;-80
2022/05/04 11:43:25;;;;;;;10.70;7.97;;;;;;;;;;5133570;27;20023;-79
2022/05/04 11:45:51;;;;;;;10.48;7.90;;;;;;;;;;5121643;27;20031;-80
2022/05/04 11:48:18;;;;;;;10.05;7.60;;;;;;;;;;5127095;27;20028;-81
2022/05/04 11:50:45;;;;;;;8.93;7.50;;;;;;;;;;5134000;27;20024;-81
2022/05/04 11:53:11;;;;;;;11.07;7.68;;;;;;;;;;5130408;27;20038;-81
2022/05/04 11:55:37;;;;;;;13.57;8.45;;;;;;;;;;5123806;27;20027;-81
2022/05/04 11:58:10;;;;;;;10.70;8.50;;;;;;;;;;5133423;27;20059;-80
2022/05/04 12:00:36;;;;;;;8.57;7.40;;;;;;;;;;5140252;27;20106;-81
2022/05/04 12:03:03;;;;;;;7.85;6.63;;;;;;;;;;5124713;28;20067;-81
2022/05/04 12:05:30;;;;;;;12.10;7.57;;;;;;;;;;5127769;27;20035;-81
2022/05/04 12:07:56;;;;;;;11.68;8.73;;;;;;;;;;5126686;27;20023;-81
2022/05/04 12:10:22;;;;;;;11.73;8.10;;;;;;;;;;5132626;27;20030;-81
2022/05/04 12:12:48;;;;;;;10.93;7.85;;;;;;;;;;5121601;27;20044;-81
2022/05/04 12:15:16;;;;;;;10.57;7.38;;;;;;;;;;5127864;27;20134;-81
2022/05/04 12:17:42;;;;;;;9.73;7.35;;;;;;;;;;5145914;27;20057;-81
2022/05/04 12:20:09;;;;;;;10.73;8.40;;;;;;;;;;5138067;27;20039;-81
2022/05/04 12:22:35;;;;;;;9.70;7.22;;;;;;;;;;5141420;27;20023;-80
2022/05/04 12:25:03;;;;;;;9.27;6.25;;;;;;;;;;5139663;27;20275;-81
2022/05/04 12:27:32;;;;;;;7.93;6.13;;;;;;;;;;5118980;28;20094;-81
2022/05/04 12:35:29;;;;;;;7.53;5.90;;;;;;;;;;5140995;27;20102;-83
2022/05/04 12:37:56;;;;;;;7.53;5.38;;;;;;;;;;5141835;27;20038;-81
2022/05/04 12:40:23;;;;;;;8.98;5.90;;;;;;;;;;5127776;27;20220;-82
2022/05/04 12:42:49;;;;;;;6.63;5.30;;;;;;;;;;5123133;28;20077;-82
2022/05/04 12:45:18;;;;;;;7.60;6.25;;;;;;;;;;5122723;28;20024;-81
2022/05/04 12:47:44;;;;;;;8.18;6.10;;;;;;;;;;5129331;27;20315;-82
2022/05/04 12:50:10;;;;;;;10.77;6.70;;;;;;;;;;5131536;27;20033;-82
2022/05/04 12:52:39;;;;;;;8.63;6.85;;;;;;;;;;5126354;28;20536;-82
2022/05/04 12:55:05;;;;;;;7.18;5.97;;;;;;;;;;5126634;27;20035;-82
2022/05/04 12:57:31;;;;;;;11.45;6.20;;;;;;;;;;5126870;28;20051;-82
2022/05/04 12:59:57;;;;;;;10.77;6.53;;;;;;;;;;5139278;28;20077;-82
2022/05/04 13:02:24;;;;;;;8.77;7.38;;;;;;;;;;5129844;28;20031;-81
2022/05/04 13:04:50;;;;;;;11.20;6.75;;;;;;;;;;5123199;28;20088;-81
2022/05/04 13:07:16;;;;;;;8.90;6.35;;;;;;;;;;5119403;28;20106;-81
2022/05/04 13:09:42;;;;;;;14.40;7.13;;;;;;;;;;5117220;28;20047;-81
2022/05/04 13:12:11;;;;;;;8.48;6.13;;;;;;;;;;5118248;28;20092;-81
2022/05/04 13:14:38;;;;;;;12.57;6.63;;;;;;;;;;5117435;28;20487;-81
2022/05/04 13:17:04;;;;;;;7.20;4.88;;;;;;;;;;5121102;28;20052;-83
2022/05/04 13:19:30;;;;;;;20.80;6.80;;;;;;;;;;5123312;28;20421;-82
2022/05/04 13:21:56;;;;;;;6.93;4.63;;;;;;;;;;5122774;28;20019;-83
2022/05/04 13:24:23;;;;;;;7.05;5.18;;;;;;;;;;5124789;28;20077;-83
2022/05/04 13:26:49;;;;;;;7.20;5.47;;;;;;;;;;5122943;28;20059;-83
2022/05/04 13:29:15;;;;;;;7.53;5.78;;;;;;;;;;5125665;28;20035;-83
2022/05/04 13:31:41;;;;;;;8.00;5.28;;;;;;;;;;5124771;28;20407;-82
2022/05/04 13:34:07;;;;;;;9.40;6.18;;;;;;;;;;5124732;28;20059;-82
2022/05/04 13:36:33;;;;;;;8.80;6.50;;;;;;;;;;5124695;28;20023;-82
2022/05/04 13:38:59;;;;;;;8.75;6.38;;;;;;;;;;5127559;28;20084;-82
2022/05/04 13:41:25;;;;;;;8.45;6.07;;;;;;;;;;5126149;28;20032;-82
2022/05/04 13:43:52;;;;;;;9.88;6.53;;;;;;;;;;5124380;28;20073;-82
2022/05/04 13:46:18;;;;;;;8.30;5.45;;;;;;;;;;5122782;28;20100;-82
2022/05/04 13:48:44;;;;;;;7.78;6.10;;;;;;;;;;5124660;28;20039;-83
2022/05/04 13:53:56;;;;;;;7.32;5.68;;;;;;;;;;5126639;28;20030;-82
2022/05/04 13:56:22;;;;;;;8.48;6.30;;;;;;;;;;5126241;28;20051;-82
2022/05/04 13:58:48;;;;;;;8.77;6.88;;;;;;;;;;5124631;28;20391;-83
2022/05/04 14:01:14;;;;;;;9.15;6.40;;;;;;;;;;5124133;28;20383;-82
2022/05/04 14:03:40;;;;;;;10.77;6.93;;;;;;;;;;5124877;28;20051;-81
2022/05/04 14:06:06;;;;;;;8.70;6.88;;;;;;;;;;5125452;28;20536;-82
2022/05/04 14:08:33;;;;;;;9.30;7.32;;;;;;;;;;5127560;28;20028;-82
2022/05/04 14:10:59;;;;;;;9.70;7.70;;;;;;;;;;5125215;28;20023;-82
2022/05/04 14:13:27;;;;;;;10.07;8.18;;;;;;;;;;5126648;28;20023;-82
2022/05/04 14:15:58;;;;;;;9.80;7.40;;;;;;;;;;5127141;28;20016;-82
2022/05/04 14:18:24;;;;;;;11.18;7.68;;;;;;;;;;5125886;28;20020;-82
2022/05/04 14:20:51;;;;;;;12.05;8.10;;;;;;;;;;5125204;28;20016;-82
2022/05/04 14:23:18;;;;;;;10.10;7.97;;;;;;;;;;5125592;28;20023;-82
2022/05/04 14:25:44;;;;;;;9.68;7.78;;;;;;;;;;5125024;28;20028;-82
2022/05/04 14:28:10;;;;;;;10.55;8.35;;;;;;;;;;5125060;28;20035;-82
2022/05/04 14:30:37;;;;;;;11.95;8.30;;;;;;;;;;5126302;28;20047;-82
2022/05/04 14:33:03;;;;;;;11.68;8.27;;;;;;;;;;5125987;28;20020;-82
2022/05/04 14:35:29;;;;;;;10.55;7.47;;;;;;;;;;5128272;28;20028;-82
2022/05/04 14:37:55;;;;;;;9.50;6.95;;;;;;;;;;5127787;28;20024;-82
2022/05/04 14:40:23;;;;;;;9.38;6.70;;;;;;;;;;5124638;28;20047;-82
2022/05/04 14:42:51;;;;;;;9.38;6.47;;;;;;;;;;5127823;28;20024;-82
2022/05/04 14:45:17;;;;;;;8.68;5.90;;;;;;;;;;5128168;28;20020;-82
2022/05/04 14:47:43;;;;;;;8.50;5.95;;;;;;;;;;5127378;28;20049;-82
2022/05/04 14:50:09;;;;;;;8.90;5.20;;;;;;;;;;5127632;28;21301;-82
2022/05/04 14:52:35;;;;;;;7.72;6.25;;;;;;;;;;5126812;28;20019;-82
2022/05/04 14:55:01;;;;;;;8.13;5.65;;;;;;;;;;5126941;28;20050;-82
2022/05/04 14:57:27;;;;;;;7.72;6.05;;;;;;;;;;5127932;28;20028;-82
2022/05/04 14:59:53;;;;;;;7.38;6.22;;;;;;;;;;5128525;28;20034;-82
2022/05/04 15:02:19;;;;;;;7.53;5.82;;;;;;;;;;5127509;28;20047;-82
2022/05/04 15:05:05;;;;;;;8.02;6.53;;;;;;;;;;5127066;28;20047;-82
2022/05/04 15:07:32;;;;;;;8.60;6.20;;;;;;;;;;5127487;28;20091;-82
2022/05/04 15:09:58;;;;;;;9.07;5.97;;;;;;;;;;5126865;28;20058;-81
2022/05/04 15:12:24;;;;;;;11.65;6.50;;;;;;;;;;5127944;28;20035;-82